Aérodrome :
LOGIN :

S'inscrire | Disclaimer

   EN    FR    IT 

 










Légende :    VFR   VFR Marginal   IFR   IFR Intensif   IFR Très Intensif
Visi : 
Plafond : 
>= 8 km
>= 3000ft
5 à 8 km
1000 à 3000 ft
1500m à 5 km
500 à 1000 ft
800 à 1500m
200 à 500 ft
< 800m
< 200 ft
Symboles :   Orages  Brouillard  Fortes neiges  Fortes précipitations  Vent > 20 kt
SIGMETs :   Divers  Orages  Givrage  Turbulence  Onde Orograph.  Cendres Volcan.







- Altitude de l'aérodrome : 782 ft
- Code IATA : BGY


LIME - Orio al Serio International - Bergamo

DERNIER METAR :
  • 181120Z 18006KT 130V210 6000 NSC 07/05 Q1011 NOSIG

METARs EXPIRÉS :
  • 181050Z 16003KT 110V240 8000 FEW090 08/04 Q1011 NOSIG
  • 181020Z VRB01KT 8000 NSC 07/04 Q1011 NOSIG
  • 180950Z VRB02KT 7000 NSC 06/04 Q1011 NOSIG
  • 180920Z VRB02KT 7000 NSC 05/03 Q1011 NOSIG
  • 180850Z VRB02KT 7000 SCT010 04/03 Q1010 NOSIG

TAF TAF LIME
Valide du 18 à 12h jusqu'au 19 à 12h UTC


181100Z 1812/1912 VRB05KT CAVOK
TEMPO 1812/1816 11010KT
BECMG 1818/1821 4000 BR BKN012 BKN040
TEMPO 1821/1904 RA
BECMG 1907/1910 7000 SCT025 BKN070
Pas de NOTAMs connus pour ce terrain.



MET'MAP, la Météo Aéronautique d'un coup d'oeil ! - Copyright ORBIFLY Décembre 2007 - Disclaimer

ORBIFLY MET'MAP TEAM :

Programmation & Développement : Alexandra Zaïnal
Conception & Développement : Baudouin d'Aumeries
Co-Programmation & Développement : Marc-Olivier Méhu
Soutien technique & logistique : Manuel Goepfert

Contact : metmap@orbifly.com




SOURCES & CREDITS :

   NOAA